Aérodrome :
LOGIN :

S'inscrire | Disclaimer

   EN    FR    IT 

 










Légende :    VFR   VFR Marginal   IFR   IFR Intensif   IFR Très Intensif
Visi : 
Plafond : 
>= 8 km
>= 3000ft
5 à 8 km
1000 à 3000 ft
1500m à 5 km
500 à 1000 ft
800 à 1500m
200 à 500 ft
< 800m
< 200 ft
Symboles :   Orages  Brouillard  Fortes neiges  Fortes précipitations  Vent > 20 kt
SIGMETs :   Divers  Orages  Givrage  Turbulence  Onde Orograph.  Cendres Volcan.







- Altitude de l'aérodrome : 425 ft
- Code IATA : DTM


EDLW - Dortmund

DERNIER METAR :
  • 211120Z VRB04KT CAVOK 26/15 Q1011

METARs EXPIRÉS :
  • 211050Z VRB04KT CAVOK 26/15 Q1011
  • 211020Z 27004KT 220V340 CAVOK 24/16 Q1011
  • 210950Z 24005KT 180V290 CAVOK 23/15 Q1011
  • 210920Z 24005KT 200V270 CAVOK 22/14 Q1011
  • 210850Z 26005KT 190V320 CAVOK 21/14 Q1011

TAF TAF EDLW
Valide du 21 à 12h jusqu'au 22 à 12h UTC


211100Z 2112/2212 29005KT CAVOK
PROB30
TEMPO 2113/2119 19015G25KT TSRA BKN040CB
BECMG 2119/2121 23005KT
BECMG 2207/2210 29007KT
Pas de NOTAMs connus pour ce terrain.



MET'MAP, la Météo Aéronautique d'un coup d'oeil ! - Copyright ORBIFLY Décembre 2007 - Disclaimer

ORBIFLY MET'MAP TEAM :

Programmation & Développement : Alexandra Zaïnal
Conception & Développement : Baudouin d'Aumeries
Co-Programmation & Développement : Marc-Olivier Méhu
Soutien technique & logistique : Manuel Goepfert

Contact : metmap@orbifly.com




SOURCES & CREDITS :

   NOAA